Time;durP1;ratioP1;P1;durP2;ratioP2;P2;SDS_P1;SDS_P2;PMS_P1;PMS_P2;Temp;Humidity;BMP_temperature;BMP_pressure;BME280_temperature;BME280_humidity;BME280_pressure;Samples;Min_cycle;Max_cycle;Signal;HPM_P1;HPM_P2
2021/08/26 00:00:58;;;;;;;12.07;6.60;;;13.20;99.90;;;;;;4440959;32;20255;-75
2021/08/26 00:06:18;;;;;;;13.57;6.77;;;13.20;99.90;;;;;;4440735;32;20183;-77
2021/08/26 00:08:47;;;;;;;12.57;6.00;;;13.20;99.90;;;;;;4440956;32;20236;-76
2021/08/26 00:11:16;;;;;;;10.33;6.07;;;13.20;99.90;;;;;;4442237;32;20184;-76
2021/08/26 00:13:45;;;;;;;11.77;6.50;;;13.20;99.90;;;;;;4442462;32;20178;-75
2021/08/26 00:16:25;;;;;;;13.10;7.07;;;13.20;99.90;;;;;;4442295;32;20170;-77
2021/08/26 00:18:53;;;;;;;12.40;6.53;;;13.20;99.90;;;;;;4440634;32;20172;-77
2021/08/26 00:21:20;;;;;;;12.83;6.50;;;13.10;99.90;;;;;;4441847;32;20127;-75
2021/08/26 00:23:47;;;;;;;11.93;6.53;;;13.10;99.90;;;;;;4441172;32;20134;-76
2021/08/26 00:26:14;;;;;;;11.97;7.33;;;13.10;99.90;;;;;;4441648;32;20199;-75
2021/08/26 00:28:41;;;;;;;12.13;6.67;;;13.10;99.90;;;;;;4440087;32;20153;-76
2021/08/26 00:31:07;;;;;;;13.30;6.60;;;13.10;99.90;;;;;;4440296;32;20126;-76
2021/08/26 00:33:34;;;;;;;12.83;7.23;;;13.00;99.90;;;;;;4442813;32;20207;-77
2021/08/26 00:36:01;;;;;;;14.47;7.23;;;12.90;99.90;;;;;;4447616;32;20135;-77
2021/08/26 00:38:28;;;;;;;12.53;6.93;;;12.90;99.90;;;;;;4441187;32;20143;-77
2021/08/26 00:40:59;;;;;;;11.70;6.60;;;12.90;99.90;;;;;;4441541;32;20538;-77
2021/08/26 00:43:30;;;;;;;11.20;6.37;;;12.90;99.90;;;;;;4441774;32;20237;-77
2021/08/26 00:45:58;;;;;;;13.43;6.67;;;12.90;99.90;;;;;;4440392;32;20518;-77
2021/08/26 00:48:26;;;;;;;11.10;6.70;;;12.90;99.90;;;;;;4439682;32;20182;-76
2021/08/26 00:50:54;;;;;;;12.27;6.90;;;12.90;99.90;;;;;;4439989;32;20127;-76
2021/08/26 00:53:22;;;;;;;13.80;6.77;;;12.90;99.90;;;;;;4441286;32;20126;-76
2021/08/26 00:55:54;;;;;;;12.50;6.23;;;12.80;99.90;;;;;;4440264;32;20392;-76
2021/08/26 00:58:21;;;;;;;12.87;6.93;;;12.90;99.90;;;;;;4441590;32;20130;-77
2021/08/26 01:00:57;;;;;;;11.47;6.87;;;12.80;99.90;;;;;;4442127;32;20491;-76
2021/08/26 01:03:46;;;;;;;10.80;6.27;;;12.80;99.90;;;;;;4448227;32;20502;-76
2021/08/26 01:07:02;;;;;;;14.37;6.93;;;12.80;99.90;;;;;;4439630;32;20176;-76
2021/08/26 01:09:38;;;;;;;12.40;6.70;;;12.90;99.90;;;;;;4425440;32;20269;-76
2021/08/26 01:12:07;;;;;;;13.37;6.73;;;12.80;99.90;;;;;;4440139;32;20123;-76
2021/08/26 01:14:36;;;;;;;11.70;6.83;;;12.80;99.90;;;;;;4439562;32;20238;-76
2021/08/26 01:17:03;;;;;;;11.37;6.40;;;12.80;99.90;;;;;;4440495;32;20191;-76
2021/08/26 01:19:30;;;;;;;12.53;6.30;;;12.80;99.90;;;;;;4441128;32;20399;-76
2021/08/26 01:21:57;;;;;;;12.10;6.60;;;12.80;99.90;;;;;;4440166;32;20161;-75
2021/08/26 01:24:28;;;;;;;11.77;6.60;;;12.80;99.90;;;;;;4439405;32;20213;-77
2021/08/26 01:26:57;;;;;;;10.90;6.13;;;12.80;99.90;;;;;;4440401;32;20536;-76
2021/08/26 01:29:25;;;;;;;11.67;6.10;;;12.80;99.90;;;;;;4441042;32;20127;-76
2021/08/26 01:31:52;;;;;;;10.30;5.97;;;12.80;99.90;;;;;;4441036;32;20389;-76
2021/08/26 01:34:20;;;;;;;11.43;6.43;;;12.80;99.90;;;;;;4439928;32;20206;-76
2021/08/26 01:36:47;;;;;;;11.80;6.53;;;12.80;99.90;;;;;;4439643;32;20159;-76
2021/08/26 01:39:16;;;;;;;12.90;6.07;;;12.80;99.90;;;;;;4438982;32;20204;-76
2021/08/26 01:41:50;;;;;;;12.47;6.50;;;12.80;99.90;;;;;;4439316;32;20127;-75
2021/08/26 01:44:23;;;;;;;13.60;6.13;;;12.80;99.90;;;;;;4439769;32;20467;-75
2021/08/26 01:47:06;;;;;;;11.03;6.57;;;12.80;99.90;;;;;;4438870;32;20184;-76
2021/08/26 01:49:33;;;;;;;13.17;6.67;;;12.80;99.90;;;;;;4439661;32;20218;-76
2021/08/26 01:52:00;;;;;;;12.13;6.50;;;12.90;99.90;;;;;;4439379;32;20130;-76
2021/08/26 01:54:27;;;;;;;12.77;6.40;;;12.90;99.90;;;;;;4440688;32;20202;-76
2021/08/26 01:56:55;;;;;;;11.90;6.00;;;12.80;99.90;;;;;;4439917;32;20142;-76
2021/08/26 01:59:22;;;;;;;12.13;6.40;;;12.80;99.90;;;;;;4440729;32;20152;-76
2021/08/26 02:01:49;;;;;;;11.93;6.53;;;12.80;99.90;;;;;;4440694;32;20525;-76
2021/08/26 02:04:15;;;;;;;12.97;6.40;;;12.80;99.90;;;;;;4439038;32;20162;-76
2021/08/26 02:06:42;;;;;;;12.43;6.90;;;12.80;99.90;;;;;;4440406;32;20130;-76
2021/08/26 02:09:09;;;;;;;13.40;6.40;;;12.80;99.90;;;;;;4438705;32;20161;-76
2021/08/26 02:11:36;;;;;;;12.63;6.43;;;12.70;99.90;;;;;;4438825;32;20158;-76
2021/08/26 02:14:03;;;;;;;14.13;6.83;;;12.70;99.90;;;;;;4439009;32;20126;-76
2021/08/26 02:16:30;;;;;;;16.03;6.70;;;12.60;99.90;;;;;;4440134;32;20190;-75
2021/08/26 02:18:56;;;;;;;14.60;6.63;;;12.60;99.90;;;;;;4440668;32;20135;-76
2021/08/26 02:21:27;;;;;;;12.47;6.60;;;12.60;99.90;;;;;;4440176;32;20131;-76
2021/08/26 02:23:56;;;;;;;13.83;7.20;;;12.50;99.90;;;;;;4439755;32;20157;-75
2021/08/26 02:26:22;;;;;;;11.83;6.87;;;12.50;99.90;;;;;;4445253;32;20154;-75
2021/08/26 02:28:49;;;;;;;12.97;6.80;;;12.50;99.90;;;;;;4441404;32;20139;-75
2021/08/26 02:31:16;;;;;;;12.60;6.67;;;12.40;99.90;;;;;;4439864;32;20159;-75
2021/08/26 02:33:43;;;;;;;13.47;6.90;;;12.40;99.90;;;;;;4438401;32;20146;-76
2021/08/26 02:36:10;;;;;;;13.20;6.70;;;12.50;99.90;;;;;;4438419;32;20146;-75
2021/08/26 02:38:37;;;;;;;14.80;7.40;;;12.40;99.90;;;;;;4439958;32;20154;-75
2021/08/26 02:41:03;;;;;;;14.97;6.97;;;12.40;99.90;;;;;;4440302;32;20517;-73
2021/08/26 02:43:30;;;;;;;14.40;7.37;;;12.40;99.90;;;;;;4440496;32;20130;-75
2021/08/26 02:45:57;;;;;;;13.10;6.93;;;12.40;99.90;;;;;;4440415;32;20139;-75
2021/08/26 02:48:24;;;;;;;12.73;6.93;;;12.30;99.90;;;;;;4439643;32;20264;-75
2021/08/26 02:50:51;;;;;;;15.23;7.03;;;12.30;99.90;;;;;;4437531;32;20135;-75
2021/08/26 02:53:18;;;;;;;12.93;7.07;;;12.30;99.90;;;;;;4440214;32;20171;-75
2021/08/26 02:55:44;;;;;;;13.13;7.17;;;12.30;99.90;;;;;;4438415;32;20123;-75
2021/08/26 02:58:12;;;;;;;11.63;6.83;;;12.30;99.90;;;;;;4438971;32;20143;-75
2021/08/26 03:00:38;;;;;;;13.37;7.00;;;12.30;99.90;;;;;;4438188;32;20126;-76
2021/08/26 03:03:06;;;;;;;16.20;7.13;;;12.20;99.90;;;;;;4438612;32;20453;-76
2021/08/26 03:05:33;;;;;;;13.57;7.53;;;12.20;99.90;;;;;;4440187;32;20127;-75
2021/08/26 03:07:59;;;;;;;16.60;7.33;;;12.20;99.90;;;;;;4439376;32;20126;-75
2021/08/26 03:10:27;;;;;;;14.57;7.07;;;12.10;99.90;;;;;;4439285;32;20182;-75
2021/08/26 03:12:55;;;;;;;15.50;7.33;;;12.20;99.90;;;;;;4439957;32;20198;-75
2021/08/26 03:15:22;;;;;;;14.60;7.23;;;12.10;99.90;;;;;;4439971;32;20191;-76
2021/08/26 03:17:49;;;;;;;13.03;7.10;;;12.10;99.90;;;;;;4439951;32;20132;-75
2021/08/26 03:20:17;;;;;;;13.57;7.13;;;12.10;99.90;;;;;;4439853;32;20127;-75
2021/08/26 03:22:43;;;;;;;17.17;8.27;;;12.10;99.90;;;;;;4438219;32;20388;-74
2021/08/26 03:25:10;;;;;;;14.30;7.63;;;12.10;99.90;;;;;;4440117;32;20124;-74
2021/08/26 03:27:37;;;;;;;15.23;7.47;;;12.10;99.90;;;;;;4439006;32;20409;-75
2021/08/26 03:30:05;;;;;;;15.07;8.00;;;12.00;99.90;;;;;;4440031;32;20173;-75
2021/08/26 03:32:32;;;;;;;13.77;7.83;;;12.10;99.90;;;;;;4439914;32;20478;-75
2021/08/26 03:34:59;;;;;;;13.57;7.47;;;12.10;99.90;;;;;;4442143;32;20127;-75
2021/08/26 03:37:26;;;;;;;14.60;8.03;;;12.10;99.90;;;;;;4442302;32;20554;-76
2021/08/26 03:39:53;;;;;;;14.20;7.30;;;12.10;99.90;;;;;;4440715;32;20557;-76
2021/08/26 03:42:20;;;;;;;16.00;7.77;;;12.10;99.90;;;;;;4440949;32;20223;-76
2021/08/26 03:44:47;;;;;;;13.93;7.50;;;12.10;99.90;;;;;;4440999;32;20427;-76
2021/08/26 03:47:14;;;;;;;14.37;7.97;;;12.10;99.90;;;;;;4442492;32;20138;-76
2021/08/26 03:49:40;;;;;;;14.63;7.70;;;12.00;99.90;;;;;;4442316;32;20153;-76
2021/08/26 03:52:07;;;;;;;14.17;8.10;;;12.00;99.90;;;;;;4441464;32;20199;-76
2021/08/26 03:54:36;;;;;;;14.03;7.70;;;12.00;99.90;;;;;;4442411;32;20218;-76
2021/08/26 03:57:03;;;;;;;16.10;7.93;;;12.10;99.90;;;;;;4440821;32;20187;-76
2021/08/26 03:59:29;;;;;;;15.70;8.50;;;12.10;99.90;;;;;;4443045;32;20191;-74
2021/08/26 04:01:56;;;;;;;15.67;7.40;;;12.10;99.90;;;;;;4441893;32;20698;-74
2021/08/26 04:04:23;;;;;;;16.07;8.87;;;12.10;99.90;;;;;;4447998;32;20504;-74
2021/08/26 04:06:50;;;;;;;14.87;7.87;;;12.10;99.90;;;;;;4440367;32;20153;-74
2021/08/26 04:09:17;;;;;;;16.50;8.63;;;12.00;99.90;;;;;;4440822;32;20202;-74
2021/08/26 04:11:44;;;;;;;14.93;8.60;;;12.00;99.90;;;;;;4442051;32;20461;-74
2021/08/26 04:14:10;;;;;;;16.90;8.77;;;12.00;99.90;;;;;;4442227;32;20132;-74
2021/08/26 04:16:38;;;;;;;17.10;8.93;;;12.00;99.90;;;;;;4440133;32;20166;-74
2021/08/26 04:19:04;;;;;;;16.40;8.97;;;12.00;99.90;;;;;;4440055;32;20123;-73
2021/08/26 04:21:32;;;;;;;13.37;7.80;;;12.10;99.90;;;;;;4440219;32;20131;-73
2021/08/26 04:23:59;;;;;;;16.07;9.07;;;12.00;99.90;;;;;;4441723;32;20416;-74
2021/08/26 04:26:25;;;;;;;16.70;8.70;;;12.00;99.90;;;;;;4449286;32;20472;-74
2021/08/26 04:28:52;;;;;;;19.23;10.07;;;12.00;99.90;;;;;;4441936;32;20127;-74
2021/08/26 04:31:19;;;;;;;16.47;9.07;;;12.00;99.90;;;;;;4440149;32;20126;-74
2021/08/26 04:33:46;;;;;;;17.73;9.93;;;12.00;99.90;;;;;;4441448;32;20180;-74
2021/08/26 04:36:13;;;;;;;19.73;9.60;;;12.00;99.90;;;;;;4438945;32;20176;-73
2021/08/26 04:38:40;;;;;;;16.27;9.50;;;12.00;99.90;;;;;;4440714;32;20580;-74
2021/08/26 04:41:06;;;;;;;17.07;9.53;;;12.00;99.90;;;;;;4439981;32;20173;-73
2021/08/26 04:43:33;;;;;;;17.73;9.57;;;12.00;99.90;;;;;;4439721;32;20153;-73
2021/08/26 04:46:00;;;;;;;18.37;9.83;;;12.00;99.90;;;;;;4441115;32;20135;-74
2021/08/26 04:48:27;;;;;;;20.80;10.77;;;12.10;99.90;;;;;;4439735;32;20505;-74
2021/08/26 04:50:54;;;;;;;22.63;10.10;;;12.10;99.90;;;;;;4439782;32;20171;-74
2021/08/26 04:53:20;;;;;;;19.30;9.87;;;12.10;99.90;;;;;;4440321;32;20401;-73
2021/08/26 04:55:47;;;;;;;17.00;9.83;;;12.10;99.90;;;;;;4439944;32;20238;-73
2021/08/26 04:58:14;;;;;;;17.43;9.67;;;12.10;99.90;;;;;;4441486;32;20142;-73
2021/08/26 05:00:41;;;;;;;17.53;10.10;;;12.10;99.90;;;;;;4441520;32;20127;-74
2021/08/26 05:03:07;;;;;;;20.03;10.83;;;12.10;99.90;;;;;;4439609;32;20150;-75
2021/08/26 05:05:34;;;;;;;17.50;10.37;;;12.10;99.90;;;;;;4441107;32;20131;-73
2021/08/26 05:08:01;;;;;;;18.40;10.43;;;12.10;99.90;;;;;;4439081;32;20473;-74
2021/08/26 05:10:28;;;;;;;21.33;10.73;;;12.10;99.90;;;;;;4439561;32;20456;-73
2021/08/26 05:12:55;;;;;;;19.30;10.07;;;12.20;99.90;;;;;;4441520;32;20123;-73
2021/08/26 05:15:21;;;;;;;18.07;10.60;;;12.20;99.90;;;;;;4439751;32;20172;-74
2021/08/26 05:17:48;;;;;;;17.87;9.97;;;12.20;99.90;;;;;;4440780;32;20192;-73
2021/08/26 05:20:15;;;;;;;19.60;10.83;;;12.20;99.90;;;;;;4439292;32;20127;-73
2021/08/26 05:22:42;;;;;;;17.97;10.83;;;12.20;99.90;;;;;;4440804;32;20131;-72
2021/08/26 05:25:09;;;;;;;18.93;11.13;;;12.10;99.90;;;;;;4440782;32;20131;-73
2021/08/26 05:27:36;;;;;;;20.60;10.60;;;12.20;99.90;;;;;;4439136;32;20421;-73
2021/08/26 05:30:03;;;;;;;20.03;11.03;;;12.20;99.90;;;;;;4438566;32;20138;-74
2021/08/26 05:32:29;;;;;;;20.57;11.30;;;12.20;99.90;;;;;;4441206;32;20565;-73
2021/08/26 05:34:56;;;;;;;20.90;11.40;;;12.20;99.90;;;;;;4445435;32;20147;-73
2021/08/26 05:37:23;;;;;;;20.27;11.17;;;12.30;99.90;;;;;;4440534;32;20135;-72
2021/08/26 05:39:50;;;;;;;18.27;11.07;;;12.30;99.90;;;;;;4438867;32;20435;-73
2021/08/26 05:42:16;;;;;;;21.57;11.77;;;12.20;99.90;;;;;;4441008;32;20167;-73
2021/08/26 05:44:43;;;;;;;20.20;11.57;;;12.30;99.90;;;;;;4441207;32;20130;-73
2021/08/26 05:47:10;;;;;;;19.27;11.13;;;12.30;99.90;;;;;;4438931;32;20573;-72
2021/08/26 05:49:37;;;;;;;18.20;10.90;;;12.30;99.90;;;;;;4440081;32;20482;-73
2021/08/26 05:52:03;;;;;;;20.43;11.97;;;12.40;99.90;;;;;;4438956;32;20138;-73
2021/08/26 05:54:30;;;;;;;20.47;11.63;;;12.40;99.90;;;;;;4441032;32;20126;-72
2021/08/26 05:56:59;;;;;;;22.33;11.83;;;12.40;99.90;;;;;;4438697;32;20210;-72
2021/08/26 05:59:26;;;;;;;20.70;11.20;;;12.40;99.90;;;;;;4438777;32;20179;-72
2021/08/26 06:01:53;;;;;;;21.27;12.10;;;12.40;99.90;;;;;;4440579;32;20157;-72
2021/08/26 06:04:20;;;;;;;21.83;11.40;;;12.40;99.90;;;;;;4438930;32;20216;-73
2021/08/26 06:06:47;;;;;;;18.30;10.67;;;12.50;99.90;;;;;;4439409;32;20489;-74
2021/08/26 06:09:14;;;;;;;19.97;11.17;;;12.40;99.90;;;;;;4439348;32;20468;-74
2021/08/26 06:11:42;;;;;;;18.97;11.47;;;12.40;99.90;;;;;;4440398;32;20180;-74
2021/08/26 06:14:10;;;;;;;23.80;12.30;;;12.50;99.90;;;;;;4440756;32;20130;-74
2021/08/26 06:16:37;;;;;;;24.33;12.37;;;12.40;99.90;;;;;;4440638;32;20520;-74
2021/08/26 06:19:04;;;;;;;22.87;12.83;;;12.40;99.90;;;;;;4440444;32;20226;-74
2021/08/26 06:21:31;;;;;;;24.30;12.67;;;12.40;99.90;;;;;;4440228;32;20196;-74
2021/08/26 06:23:58;;;;;;;22.37;13.00;;;12.40;99.90;;;;;;4440694;32;20154;-73
2021/08/26 06:26:25;;;;;;;22.87;12.80;;;12.40;99.90;;;;;;4448457;32;20165;-73
2021/08/26 06:28:52;;;;;;;24.47;13.33;;;12.40;99.90;;;;;;4440520;32;20153;-74
2021/08/26 06:31:19;;;;;;;22.53;12.67;;;12.50;99.90;;;;;;4440176;32;20431;-74
2021/08/26 06:33:46;;;;;;;19.50;11.70;;;12.60;99.90;;;;;;4438448;32;20126;-73
2021/08/26 06:36:13;;;;;;;19.23;11.93;;;12.60;99.90;;;;;;4438264;32;20230;-74
2021/08/26 06:38:39;;;;;;;18.53;12.10;;;12.60;99.90;;;;;;4437562;32;20211;-73
2021/08/26 06:41:08;;;;;;;18.50;12.10;;;12.60;99.90;;;;;;4440261;32;20509;-74
2021/08/26 06:43:35;;;;;;;19.67;11.37;;;12.60;99.90;;;;;;4440031;32;20389;-73
2021/08/26 06:46:02;;;;;;;21.77;11.50;;;12.70;99.90;;;;;;4439830;32;20123;-74
2021/08/26 06:48:29;;;;;;;19.03;11.30;;;12.70;99.90;;;;;;4439556;32;20180;-74
2021/08/26 06:50:56;;;;;;;18.93;11.43;;;12.70;99.90;;;;;;4439082;32;20220;-74
2021/08/26 06:53:22;;;;;;;19.10;10.90;;;12.80;99.90;;;;;;4440258;32;20187;-73
2021/08/26 06:55:49;;;;;;;19.80;10.70;;;12.80;99.90;;;;;;4438493;32;20171;-72
2021/08/26 06:58:16;;;;;;;17.37;10.63;;;12.90;99.90;;;;;;4439678;32;20209;-73
2021/08/26 07:00:43;;;;;;;16.67;10.57;;;12.90;99.90;;;;;;4440295;32;20224;-73
2021/08/26 07:03:09;;;;;;;16.67;10.40;;;12.80;99.90;;;;;;4446313;32;20134;-75
2021/08/26 07:05:37;;;;;;;18.40;11.27;;;12.90;99.90;;;;;;4439815;32;20143;-73
2021/08/26 07:08:04;;;;;;;19.13;11.33;;;12.80;99.90;;;;;;4438265;32;20138;-73
2021/08/26 07:10:31;;;;;;;18.17;10.47;;;12.90;99.90;;;;;;4442847;32;20226;-74
2021/08/26 07:12:58;;;;;;;17.93;10.73;;;12.90;99.90;;;;;;4442782;32;20513;-75
2021/08/26 07:15:25;;;;;;;15.10;10.23;;;12.90;99.90;;;;;;4441225;32;20153;-75
2021/08/26 07:17:52;;;;;;;15.43;10.30;;;12.90;99.90;;;;;;4442921;32;20130;-76
2021/08/26 07:20:20;;;;;;;18.77;10.33;;;12.90;99.90;;;;;;4441161;32;20184;-74
2021/08/26 07:22:47;;;;;;;16.10;10.50;;;13.10;99.90;;;;;;4441719;32;20452;-75
2021/08/26 07:25:14;;;;;;;15.63;10.33;;;13.20;99.90;;;;;;4442971;32;20161;-74
2021/08/26 07:27:41;;;;;;;14.20;9.93;;;13.30;99.90;;;;;;4442907;32;20198;-74
2021/08/26 07:30:08;;;;;;;13.87;9.20;;;13.40;99.90;;;;;;4442045;32;20135;-72
2021/08/26 07:32:35;;;;;;;14.53;9.47;;;13.40;99.90;;;;;;4441156;32;20123;-72
2021/08/26 07:35:01;;;;;;;14.83;9.60;;;13.40;99.90;;;;;;4441015;32;20197;-73
2021/08/26 07:37:28;;;;;;;12.47;8.57;;;13.50;99.90;;;;;;4441020;32;20138;-74
2021/08/26 07:39:55;;;;;;;13.90;8.83;;;13.60;99.90;;;;;;4442768;32;20154;-73
2021/08/26 07:42:21;;;;;;;11.80;8.07;;;13.70;99.90;;;;;;4442664;32;20187;-74
2021/08/26 07:44:48;;;;;;;11.67;8.47;;;13.80;99.90;;;;;;4442738;32;20206;-73
2021/08/26 07:47:15;;;;;;;11.20;7.87;;;13.90;99.90;;;;;;4447661;32;20142;-72
2021/08/26 07:49:42;;;;;;;11.80;7.63;;;14.00;99.90;;;;;;4440630;32;20180;-73
2021/08/26 07:52:09;;;;;;;10.60;7.70;;;14.10;99.90;;;;;;4441439;32;20127;-73
2021/08/26 07:54:35;;;;;;;11.50;7.30;;;14.10;99.90;;;;;;4442252;32;20210;-73
2021/08/26 07:57:02;;;;;;;10.80;7.87;;;14.00;99.90;;;;;;4441026;32;20201;-74
2021/08/26 07:59:29;;;;;;;11.17;7.33;;;14.00;99.90;;;;;;4442155;32;20228;-76
2021/08/26 08:01:56;;;;;;;11.60;7.70;;;14.00;99.90;;;;;;4440382;32;20127;-76
2021/08/26 08:04:23;;;;;;;10.87;7.67;;;14.10;99.90;;;;;;4442363;32;20165;-75
2021/08/26 08:06:50;;;;;;;13.00;7.67;;;14.20;99.90;;;;;;4441360;32;20404;-75
2021/08/26 08:09:16;;;;;;;11.23;8.00;;;14.10;99.90;;;;;;4440614;32;20162;-73
2021/08/26 08:11:43;;;;;;;9.30;7.10;;;14.10;99.90;;;;;;4440423;32;20135;-73
2021/08/26 08:14:10;;;;;;;10.63;7.47;;;14.20;99.90;;;;;;4440137;32;20195;-73
2021/08/26 08:16:37;;;;;;;10.60;7.60;;;14.10;99.90;;;;;;4446262;32;20142;-73
2021/08/26 08:19:04;;;;;;;11.67;8.03;;;14.10;99.90;;;;;;4445349;32;20139;-72
2021/08/26 08:21:31;;;;;;;10.70;8.10;;;14.20;99.90;;;;;;4441917;32;20397;-72
2021/08/26 08:23:58;;;;;;;11.47;8.00;;;14.20;99.90;;;;;;4442017;32;20127;-73
2021/08/26 08:26:25;;;;;;;12.60;8.03;;;14.30;99.90;;;;;;4441151;32;20129;-73
2021/08/26 08:28:52;;;;;;;12.77;8.13;;;14.30;99.90;;;;;;4441491;32;20127;-74
2021/08/26 08:31:19;;;;;;;10.83;7.77;;;14.30;99.90;;;;;;4441925;32;20504;-75
2021/08/26 08:33:46;;;;;;;13.10;8.10;;;14.40;99.90;;;;;;4439731;32;20128;-74
2021/08/26 08:36:14;;;;;;;12.57;8.20;;;14.40;99.90;;;;;;4441523;32;20126;-73
2021/08/26 08:38:41;;;;;;;11.23;7.67;;;14.50;99.90;;;;;;4441454;32;20378;-72
2021/08/26 08:41:08;;;;;;;8.83;7.00;;;14.60;99.90;;;;;;4441416;32;20558;-72
2021/08/26 08:43:36;;;;;;;8.83;7.13;;;14.60;99.90;;;;;;4441723;32;20484;-73
2021/08/26 08:46:06;;;;;;;10.00;7.87;;;14.70;99.90;;;;;;4442817;32;20142;-72
2021/08/26 08:48:35;;;;;;;10.57;7.80;;;14.60;99.90;;;;;;4448257;32;20184;-73
2021/08/26 08:51:03;;;;;;;11.00;7.63;;;14.70;99.90;;;;;;4440720;32;20146;-74
2021/08/26 08:53:30;;;;;;;10.33;8.13;;;14.70;99.90;;;;;;4441141;32;20418;-73
2021/08/26 08:55:57;;;;;;;10.70;7.77;;;14.90;99.90;;;;;;4440510;32;20153;-75
2021/08/26 08:58:24;;;;;;;10.23;6.63;;;15.10;99.90;;;;;;4441631;32;20143;-74
2021/08/26 09:00:51;;;;;;;7.97;6.63;;;15.10;99.90;;;;;;4441545;32;20205;-73
2021/08/26 09:03:18;;;;;;;9.93;6.93;;;15.30;99.90;;;;;;4441215;32;20468;-73
2021/08/26 09:05:56;;;;;;;9.13;6.60;;;15.30;99.90;;;;;;4441466;32;20126;-73
2021/08/26 09:08:28;;;;;;;8.90;6.33;;;15.30;99.90;;;;;;4439700;32;20269;-71
2021/08/26 09:11:12;;;;;;;8.40;6.30;;;15.30;99.90;;;;;;4438092;32;20185;-73
2021/08/26 09:13:41;;;;;;;8.37;5.97;;;15.40;99.90;;;;;;4451488;32;20142;-75
2021/08/26 09:16:08;;;;;;;7.97;6.30;;;15.50;99.90;;;;;;4453617;32;20202;-73
2021/08/26 09:18:35;;;;;;;7.90;6.13;;;15.50;99.90;;;;;;4449495;32;20199;-72
2021/08/26 09:21:08;;;;;;;7.70;5.60;;;15.40;99.90;;;;;;4446890;32;20142;-74
2021/08/26 09:23:50;;;;;;;8.23;6.03;;;15.30;99.90;;;;;;4440680;32;20184;-72
2021/08/26 09:26:20;;;;;;;8.57;6.07;;;15.30;99.90;;;;;;4440565;32;20232;-72
2021/08/26 09:28:48;;;;;;;9.00;6.67;;;15.30;99.90;;;;;;4443009;32;20166;-72
2021/08/26 09:31:22;;;;;;;8.57;6.77;;;15.40;99.90;;;;;;4441368;32;20219;-72
2021/08/26 09:33:57;;;;;;;8.03;5.80;;;15.50;99.90;;;;;;4453281;32;20403;-71
2021/08/26 09:36:36;;;;;;;7.80;6.03;;;15.60;99.90;;;;;;4446916;32;20142;-71
2021/08/26 09:39:07;;;;;;;8.83;5.90;;;15.80;99.90;;;;;;4438819;32;20188;-72
2021/08/26 09:41:44;;;;;;;8.13;6.03;;;15.90;99.90;;;;;;4440081;32;20218;-71
2021/08/26 09:44:46;;;;;;;9.80;5.90;;;15.90;99.90;;;;;;4441082;32;20563;-72
2021/08/26 09:47:13;;;;;;;8.37;5.73;;;16.20;99.90;;;;;;4387009;32;20430;-72
2021/08/26 09:49:43;;;;;;;7.53;5.70;;;16.70;99.90;;;;;;4382426;32;20167;-73
2021/08/26 09:52:15;;;;;;;10.17;5.40;;;16.90;99.90;;;;;;4386151;32;20181;-73
2021/08/26 09:54:51;;;;;;;10.00;5.13;;;16.90;99.90;;;;;;4385029;32;20210;-74
2021/08/26 09:57:25;;;;;;;8.00;5.43;;;16.90;99.90;;;;;;4376593;32;20184;-72
2021/08/26 10:00:02;;;;;;;7.07;5.33;;;16.70;99.90;;;;;;4391245;32;20264;-73
2021/08/26 10:02:31;;;;;;;7.23;4.90;;;16.60;99.90;;;;;;4391875;32;20202;-73
2021/08/26 10:04:58;;;;;;;7.27;5.27;;;16.40;99.90;;;;;;4384689;32;20563;-72
2021/08/26 10:07:27;;;;;;;6.80;4.70;;;16.40;99.90;;;;;;4389773;32;20282;-73
2021/08/26 10:09:54;;;;;;;6.43;4.60;;;16.30;99.90;;;;;;4390797;32;20364;-73
2021/08/26 10:12:21;;;;;;;6.03;4.50;;;16.30;99.90;;;;;;4392169;32;20147;-73
2021/08/26 10:14:50;;;;;;;6.57;4.63;;;16.40;99.90;;;;;;4391734;32;20170;-72
2021/08/26 10:17:18;;;;;;;6.23;4.77;;;16.50;99.90;;;;;;4389447;32;20539;-72
2021/08/26 10:19:45;;;;;;;5.60;4.33;;;16.60;99.90;;;;;;4378249;32;20178;-75
2021/08/26 10:22:13;;;;;;;7.90;5.10;;;16.80;99.90;;;;;;4440410;32;20162;-76
2021/08/26 10:24:40;;;;;;;6.43;4.67;;;17.10;99.90;;;;;;4443219;32;20178;-76
2021/08/26 10:27:14;;;;;;;6.63;4.43;;;17.50;99.90;;;;;;4437787;32;20142;-75
2021/08/26 10:29:48;;;;;;;4.70;3.70;;;18.10;99.90;;;;;;4438356;32;20573;-76
2021/08/26 10:32:21;;;;;;;5.50;3.80;;;18.30;99.90;;;;;;4438792;32;20203;-76
2021/08/26 10:35:08;;;;;;;4.53;3.77;;;18.10;99.90;;;;;;4439432;32;20210;-76
2021/08/26 10:37:49;;;;;;;6.50;3.83;;;18.20;99.90;;;;;;4438341;32;20142;-76
2021/08/26 10:40:25;;;;;;;4.73;3.67;;;18.20;99.90;;;;;;4439320;32;20480;-75
2021/08/26 10:42:53;;;;;;;5.23;3.27;;;18.40;99.90;;;;;;4440645;32;20150;-75
2021/08/26 10:45:24;;;;;;;5.43;3.57;;;18.30;99.90;;;;;;4443328;32;20143;-76
2021/08/26 10:47:53;;;;;;;4.33;3.47;;;18.40;99.90;;;;;;4446303;32;20138;-76
2021/08/26 10:50:27;;;;;;;3.63;3.20;;;18.50;99.90;;;;;;4451721;32;20142;-75
2021/08/26 10:53:17;;;;;;;5.07;3.30;;;18.50;99.90;;;;;;4456814;32;20536;-72
2021/08/26 10:55:53;;;;;;;4.73;3.30;;;18.70;99.90;;;;;;4456855;32;20203;-75
2021/08/26 10:58:22;;;;;;;4.67;3.30;;;18.80;99.90;;;;;;4458674;32;20198;-75
2021/08/26 11:00:59;;;;;;;5.30;3.30;;;18.80;99.90;;;;;;4457601;32;20455;-75
2021/08/26 11:03:33;;;;;;;5.40;3.30;;;18.70;99.90;;;;;;4458334;32;20237;-76
2021/08/26 11:06:14;;;;;;;3.90;3.00;;;18.50;99.90;;;;;;4457835;32;20185;-76
2021/08/26 11:08:44;;;;;;;3.97;3.30;;;18.60;99.90;;;;;;4456560;32;20154;-77
2021/08/26 11:11:27;;;;;;;4.37;3.00;;;18.60;99.90;;;;;;4456534;32;20213;-75
2021/08/26 11:14:23;;;;;;;4.30;3.10;;;18.50;99.90;;;;;;4456561;32;20155;-79
2021/08/26 11:16:55;;;;;;;4.80;3.20;;;18.40;99.90;;;;;;4458449;32;20180;-77
2021/08/26 11:19:23;;;;;;;5.33;3.20;;;18.30;99.90;;;;;;4446985;32;20151;-78
2021/08/26 11:21:50;;;;;;;5.83;3.10;;;18.40;99.90;;;;;;4457911;32;20533;-76
2021/08/26 11:24:22;;;;;;;4.17;2.97;;;18.70;99.90;;;;;;4458322;32;20221;-80
2021/08/26 11:26:49;;;;;;;3.47;2.80;;;18.90;99.90;;;;;;4457147;32;20184;-77
2021/08/26 11:29:24;;;;;;;4.23;3.03;;;18.70;99.90;;;;;;4455051;32;20158;-79
2021/08/26 11:31:54;;;;;;;3.20;2.83;;;18.50;99.90;;;;;;4457584;32;20417;-77
2021/08/26 11:34:37;;;;;;;3.93;2.90;;;18.60;99.90;;;;;;4456990;32;20543;-79
2021/08/26 11:37:20;;;;;;;3.30;2.80;;;18.60;99.90;;;;;;4456919;32;20483;-79
2021/08/26 11:40:04;;;;;;;4.50;3.00;;;18.80;99.90;;;;;;4458259;32;20149;-83
2021/08/26 11:42:45;;;;;;;3.63;2.70;;;19.10;99.90;;;;;;4444421;32;20455;-79
2021/08/26 11:45:20;;;;;;;3.47;2.60;;;19.80;99.90;;;;;;4441979;32;20413;-79
2021/08/26 11:47:58;;;;;;;3.20;2.50;;;20.20;99.90;;;;;;4443563;32;20500;-78
2021/08/26 11:50:26;;;;;;;3.03;2.40;;;20.30;99.90;;;;;;4452257;32;20146;-78
2021/08/26 11:52:59;;;;;;;4.17;2.70;;;20.20;99.90;;;;;;4456491;32;20560;-79
2021/08/26 11:55:39;;;;;;;4.87;2.90;;;20.20;99.90;;;;;;4444611;32;20235;-79
2021/08/26 11:58:09;;;;;;;3.77;2.73;;;20.40;99.90;;;;;;4443873;32;20400;-80
2021/08/26 12:00:41;;;;;;;4.67;2.50;;;20.40;99.90;;;;;;4442363;32;20178;-80
2021/08/26 12:03:10;;;;;;;4.27;3.27;;;20.50;99.90;;;;;;4441381;32;20173;-75
2021/08/26 12:05:41;;;;;;;4.60;2.70;;;20.40;99.90;;;;;;4442244;32;20143;-76
2021/08/26 12:08:08;;;;;;;3.77;2.50;;;20.10;99.90;;;;;;4442595;32;20138;-76
2021/08/26 12:10:43;;;;;;;3.10;2.60;;;20.10;99.90;;;;;;4455854;32;20221;-76
2021/08/26 12:13:12;;;;;;;4.27;2.70;;;19.90;99.90;;;;;;4457717;32;20146;-77
2021/08/26 12:15:44;;;;;;;3.60;2.50;;;19.80;99.90;;;;;;4454722;32;20479;-77
2021/08/26 12:18:17;;;;;;;3.00;2.50;;;19.70;99.90;;;;;;4450846;32;20198;-77
2021/08/26 12:20:53;;;;;;;5.10;2.60;;;19.40;99.90;;;;;;4451975;32;20164;-77
2021/08/26 12:23:25;;;;;;;3.37;2.60;;;19.30;99.90;;;;;;4456506;32;20180;-76
2021/08/26 12:26:06;;;;;;;3.60;2.70;;;19.20;99.90;;;;;;4455054;32;20193;-77
2021/08/26 12:28:36;;;;;;;4.33;2.80;;;19.30;99.90;;;;;;4441296;32;20504;-77
2021/08/26 12:31:08;;;;;;;3.87;2.90;;;19.20;99.90;;;;;;4440201;32;20217;-77
2021/08/26 12:34:06;;;;;;;3.03;2.63;;;19.50;99.90;;;;;;4442414;32;20138;-78
2021/08/26 12:36:36;;;;;;;7.37;3.27;;;19.80;99.90;;;;;;4446511;32;20143;-77
2021/08/26 12:39:23;;;;;;;3.47;2.60;;;20.00;99.90;;;;;;4456791;32;20188;-75
2021/08/26 12:42:05;;;;;;;4.70;2.70;;;20.10;99.90;;;;;;4456473;32;20408;-74
2021/08/26 12:44:32;;;;;;;3.27;2.40;;;19.90;99.90;;;;;;4456367;32;20397;-77
2021/08/26 12:47:02;;;;;;;5.47;2.67;;;19.80;99.90;;;;;;4454625;32;20216;-75
2021/08/26 12:49:43;;;;;;;3.83;2.73;;;19.70;99.90;;;;;;4455938;32;20261;-75
2021/08/26 12:52:10;;;;;;;3.83;2.70;;;19.70;99.90;;;;;;4450305;32;20188;-76